Accueil
METAR-TAF:

METAR-TAF

Aéroports :

Aéroport de Tanger-Ibn Battouta

Tanger, Maroc

latitude: 35-44N, longitude: 005-54W, altitude: 19 m

Observation

Le bulletin a été fait il y a 23 minutes, à 07:00 UTC
Vent 18 kt de est
Température 15°C
Humidité 77%
Pression 1022 hPa
Visibilité 10 km ou plus
Nuages épars à une hauteur de 2000 ft

METAR: GMTT 210700Z 09018KT 9999 SCT020 15/11 Q1022 NOSIG

Heure: 08:23 (07:23 UTC)

Prévision

Le bulletin a été fait il y a 2 heures et 23 minutes, à 05:00 UTC
Prévision valable du 21 à 06 UTC au 22 à 12 UTC
Vent 18 kt de est
Visibilité 10 km ou plus
pas de nuages en-dessous de 1500 mètres et pas de cumulonimbus.
Temporairement
du 21 à 08 UTC au 21 à 18 UTC
Vent 20 kt de est avec des rafales jusqu'à 30 kt

TAF: GMTT 210500Z 2106/2212 09018KT CAVOK TEMPO 2108/2118 09020G30KT

Observations et prévisions météorologiques de plus de 4000 aéroports (messages METAR et TAF).

Les stations disponibles sont représentées par des disques jaunes et rouges sur la carte.

Passer la souris dessus pour voir le nom de la station.

Cliquer dessus pour voir les observations et prévisions météorologiques.

Pour changer de carte: cliquez sur les boutons verts avec une croix noire pour zoomer, sur le bouton vert avec un tiret pour effectuer un zoom arrière, ou sur les flèches vertes pour les cartes adjacentes.


METAR-TAF: